createdAt,value
2023-01-04T00:00:15.724Z,9.30
2023-01-04T00:01:19.441Z,11.67
2023-01-04T00:02:21.271Z,10.57
2023-01-04T00:03:23.201Z,8.75
2023-01-04T00:04:24.963Z,10.23
2023-01-04T00:05:26.736Z,10.75
2023-01-04T00:06:28.462Z,10.82
2023-01-04T00:07:30.743Z,11.80
2023-01-04T00:08:32.838Z,13.10
2023-01-04T00:09:34.491Z,11.63
2023-01-04T00:10:36.140Z,12.60
2023-01-04T00:11:37.950Z,12.07
2023-01-04T00:12:39.820Z,11.77
2023-01-04T00:13:41.653Z,13.70
2023-01-04T00:14:43.289Z,12.05
2023-01-04T00:15:45.064Z,12.07
2023-01-04T00:16:46.892Z,11.35
2023-01-04T00:17:48.663Z,11.38
2023-01-04T00:18:51.469Z,11.43
2023-01-04T00:19:54.281Z,10.90
2023-01-04T00:20:56.003Z,11.18
2023-01-04T00:21:57.667Z,11.20
2023-01-04T00:22:59.393Z,12.10
2023-01-04T00:24:02.176Z,11.30
2023-01-04T00:25:04.169Z,10.73
2023-01-04T00:26:10.458Z,10.63
2023-01-04T00:27:12.245Z,11.13
2023-01-04T00:28:13.995Z,10.57
2023-01-04T00:29:15.922Z,10.40
2023-01-04T00:30:17.879Z,12.27
2023-01-04T00:31:19.822Z,11.63
2023-01-04T00:32:21.644Z,12.00
2023-01-04T00:33:23.400Z,11.52
2023-01-04T00:34:25.121Z,11.45
2023-01-04T00:35:44.674Z,11.35
2023-01-04T00:36:47.527Z,11.48
2023-01-04T00:37:52.019Z,11.40
2023-01-04T00:38:55.514Z,11.00
2023-01-04T00:39:57.237Z,11.15
2023-01-04T00:40:58.979Z,10.73
2023-01-04T00:42:01.761Z,10.65
2023-01-04T00:43:03.776Z,11.73
2023-01-04T00:44:09.309Z,11.90
2023-01-04T00:45:11.024Z,9.55
2023-01-04T00:46:12.710Z,9.57
2023-01-04T00:47:14.678Z,9.77
2023-01-04T00:48:16.377Z,10.32
2023-01-04T00:49:18.175Z,9.75
2023-01-04T00:50:19.873Z,10.20
2023-01-04T00:51:21.614Z,10.73
2023-01-04T00:52:23.382Z,9.80
2023-01-04T00:53:25.100Z,9.60
2023-01-04T00:54:27.136Z,9.82
2023-01-04T00:55:30.910Z,9.40
2023-01-04T00:56:34.203Z,9.23
2023-01-04T00:57:35.874Z,8.68
2023-01-04T00:58:37.612Z,8.48
2023-01-04T00:59:39.324Z,8.05
2023-01-04T01:00:41.103Z,8.93
2023-01-04T01:01:43.806Z,8.00
2023-01-04T01:02:45.702Z,8.20
2023-01-04T01:03:47.644Z,8.50
2023-01-04T01:04:49.365Z,7.80
2023-01-04T01:05:51.125Z,8.18
2023-01-04T01:06:53.258Z,7.72
2023-01-04T01:07:55.011Z,8.15
2023-01-04T01:08:57.726Z,7.90
2023-01-04T01:09:59.396Z,8.55
2023-01-04T01:11:06.865Z,8.60
2023-01-04T01:12:08.586Z,8.25
2023-01-04T01:13:10.252Z,8.40
2023-01-04T01:14:22.375Z,8.10
2023-01-04T01:15:24.119Z,8.35
2023-01-04T01:16:57.555Z,9.35
2023-01-04T01:17:48.064Z,8.98
2023-01-04T01:18:49.846Z,9.63
2023-01-04T01:19:51.564Z,7.53
2023-01-04T01:20:53.355Z,8.90
2023-01-04T01:21:55.694Z,7.63
2023-01-04T01:22:57.354Z,9.23
2023-01-04T01:23:59.046Z,7.93
2023-01-04T01:25:00.991Z,8.33
2023-01-04T01:26:05.033Z,9.90
2023-01-04T01:27:06.956Z,10.90
2023-01-04T01:28:09.238Z,10.35
2023-01-04T01:29:10.987Z,9.45
2023-01-04T01:30:12.938Z,8.50
2023-01-04T01:31:20.769Z,9.25
2023-01-04T01:32:22.555Z,10.07
2023-01-04T01:33:24.225Z,10.15
2023-01-04T01:34:25.971Z,9.55
2023-01-04T01:35:27.669Z,9.13
2023-01-04T01:36:29.351Z,9.95
2023-01-04T01:37:31.129Z,10.10
2023-01-04T01:38:32.947Z,9.35
2023-01-04T01:39:34.603Z,9.43
2023-01-04T01:40:41.978Z,9.73
2023-01-04T01:41:43.856Z,9.73
2023-01-04T01:42:45.651Z,9.95
2023-01-04T01:43:56.320Z,10.32
2023-01-04T01:45:06.913Z,9.70
2023-01-04T01:46:08.698Z,10.40
2023-01-04T01:47:26.915Z,12.48
2023-01-04T01:48:29.887Z,14.55
2023-01-04T01:49:37.020Z,14.60
2023-01-04T01:50:51.424Z,11.65
2023-01-04T01:51:56.349Z,11.40
2023-01-04T01:53:00.450Z,11.23
2023-01-04T01:54:09.005Z,11.45
2023-01-04T01:55:12.462Z,11.75
2023-01-04T01:56:18.259Z,10.43
2023-01-04T01:57:24.594Z,10.23
2023-01-04T01:58:30.953Z,10.27
2023-01-04T01:59:35.979Z,11.90
2023-01-04T02:00:37.686Z,11.15
2023-01-04T02:01:40.232Z,12.30
2023-01-04T02:03:14.030Z,12.50
2023-01-04T02:04:17.276Z,12.65
2023-01-04T02:05:21.460Z,10.93
2023-01-04T02:06:31.206Z,10.77
2023-01-04T02:07:34.353Z,9.77
2023-01-04T02:08:38.115Z,9.53
2023-01-04T02:09:40.800Z,10.60
2023-01-04T02:10:42.529Z,12.18
2023-01-04T02:11:44.214Z,11.32
2023-01-04T02:12:46.695Z,10.98
2023-01-04T02:13:48.987Z,10.90
2023-01-04T02:14:51.415Z,9.13
2023-01-04T02:15:58.844Z,10.75
2023-01-04T02:17:24.017Z,10.98
2023-01-04T02:18:34.120Z,11.10
2023-01-04T02:19:54.264Z,8.80
2023-01-04T02:21:12.768Z,9.52
2023-01-04T02:22:38.658Z,9.88
2023-01-04T02:23:55.321Z,9.18
2023-01-04T02:25:09.217Z,10.23
2023-01-04T02:26:26.529Z,9.52
2023-01-04T02:27:54.288Z,10.02
2023-01-04T02:29:37.752Z,11.45
2023-01-04T02:30:45.454Z,10.43
2023-01-04T02:32:22.952Z,10.13
2023-01-04T02:33:33.406Z,7.87
2023-01-04T02:34:35.083Z,10.07
2023-01-04T02:35:51.337Z,10.18
2023-01-04T02:37:09.968Z,10.73
2023-01-04T02:38:25.883Z,8.25
2023-01-04T02:39:39.118Z,9.43
2023-01-04T02:41:02.425Z,9.55
2023-01-04T02:42:16.419Z,9.43
2023-01-04T02:43:32.505Z,10.65
2023-01-04T02:44:53.745Z,10.32
2023-01-04T02:46:03.191Z,10.23
2023-01-04T02:47:13.101Z,10.10
2023-01-04T02:48:14.766Z,11.38
2023-01-04T02:49:16.535Z,13.57
2023-01-04T02:50:37.267Z,11.60
2023-01-04T02:51:39.285Z,9.98
2023-01-04T02:52:41.048Z,10.65
2023-01-04T02:54:37.498Z,11.02
2023-01-04T02:55:47.103Z,9.48
2023-01-04T02:57:17.125Z,10.27
2023-01-04T02:58:36.708Z,10.23
2023-01-04T02:59:47.433Z,10.85
2023-01-04T03:01:00.487Z,11.00
2023-01-04T03:02:02.261Z,10.50
2023-01-04T03:03:18.944Z,9.98
2023-01-04T03:04:31.454Z,10.55
2023-01-04T03:06:17.820Z,10.75
2023-01-04T03:07:42.088Z,9.65
2023-01-04T03:08:43.849Z,11.25
2023-01-04T03:09:50.511Z,9.98
2023-01-04T03:11:08.698Z,9.93
2023-01-04T03:12:21.388Z,11.32
2023-01-04T03:13:27.856Z,11.88
2023-01-04T03:14:35.547Z,10.90
2023-01-04T03:15:40.166Z,11.63
2023-01-04T03:16:45.275Z,11.35
2023-01-04T03:17:57.284Z,12.60
2023-01-04T03:18:59.068Z,11.93
2023-01-04T03:20:01.678Z,11.52
2023-01-04T03:21:05.794Z,12.60
2023-01-04T03:22:08.878Z,12.90
2023-01-04T03:23:15.645Z,13.48
2023-01-04T03:24:17.580Z,12.30
2023-01-04T03:25:25.398Z,13.30
2023-01-04T03:26:28.512Z,13.25
2023-01-04T03:27:30.279Z,14.13
2023-01-04T03:28:37.206Z,14.35
2023-01-04T03:29:53.737Z,13.25
2023-01-04T03:31:04.859Z,13.40
2023-01-04T03:32:14.580Z,12.20
2023-01-04T03:33:18.430Z,12.07
2023-01-04T03:34:20.293Z,13.02
2023-01-04T03:35:29.536Z,13.63
2023-01-04T03:36:43.625Z,14.93
2023-01-04T03:38:14.282Z,13.77
2023-01-04T03:39:29.504Z,13.30
2023-01-04T03:40:33.739Z,13.57
2023-01-04T03:41:45.527Z,12.93
2023-01-04T03:42:49.988Z,13.27
2023-01-04T03:44:28.431Z,14.10
2023-01-04T03:45:33.898Z,12.07
2023-01-04T03:46:53.698Z,12.95
2023-01-04T03:48:10.388Z,13.48
2023-01-04T03:49:33.929Z,12.30
2023-01-04T03:50:58.879Z,12.80
2023-01-04T03:52:04.375Z,11.82
2023-01-04T03:53:08.247Z,13.32
2023-01-04T03:54:12.819Z,12.73
2023-01-04T03:55:16.146Z,14.30
2023-01-04T03:56:20.118Z,12.90
2023-01-04T03:57:23.954Z,13.20
2023-01-04T03:58:26.912Z,13.10
2023-01-04T03:59:28.788Z,13.75
2023-01-04T04:00:31.542Z,14.38
2023-01-04T04:01:35.321Z,14.20
2023-01-04T04:02:38.027Z,12.65
2023-01-04T04:03:40.061Z,12.98
2023-01-04T04:04:42.324Z,13.50
2023-01-04T04:05:45.615Z,13.85
2023-01-04T04:06:47.333Z,13.35
2023-01-04T04:07:49.059Z,13.03
2023-01-04T04:08:50.765Z,15.25
2023-01-04T04:09:52.476Z,14.10
2023-01-04T04:10:56.626Z,11.57
2023-01-04T04:11:58.854Z,10.82
2023-01-04T04:13:00.766Z,11.68
2023-01-04T04:14:02.525Z,12.10
2023-01-04T04:15:04.834Z,12.18
2023-01-04T04:16:06.937Z,11.73
2023-01-04T04:17:08.850Z,12.02
2023-01-04T04:18:10.662Z,11.37
2023-01-04T04:19:12.384Z,11.15
2023-01-04T04:20:14.059Z,10.75
2023-01-04T04:21:15.775Z,11.27
2023-01-04T04:22:17.503Z,14.00
2023-01-04T04:23:19.264Z,13.13
2023-01-04T04:24:23.964Z,14.27
2023-01-04T04:25:25.786Z,11.63
2023-01-04T04:26:27.453Z,12.65
2023-01-04T04:27:29.137Z,10.90
2023-01-04T04:28:31.011Z,11.17
2023-01-04T04:29:32.745Z,11.63
2023-01-04T04:30:34.462Z,11.00
2023-01-04T04:31:36.301Z,11.65
2023-01-04T04:32:38.070Z,11.05
2023-01-04T04:33:39.762Z,10.88
2023-01-04T04:34:41.438Z,10.13
2023-01-04T04:35:43.362Z,10.68
2023-01-04T04:36:45.125Z,10.02
2023-01-04T04:37:46.844Z,9.77
2023-01-04T04:38:48.581Z,9.50
2023-01-04T04:39:50.231Z,8.90
2023-01-04T04:40:51.947Z,10.45
2023-01-04T04:41:53.686Z,18.15
2023-01-04T04:42:55.401Z,21.33
2023-01-04T04:43:58.179Z,11.38
2023-01-04T04:45:00.459Z,9.93
2023-01-04T04:46:03.728Z,10.38
2023-01-04T04:47:05.502Z,9.75
2023-01-04T04:48:07.234Z,25.35
2023-01-04T04:49:10.183Z,23.20
2023-01-04T04:50:11.845Z,17.98
2023-01-04T04:51:13.654Z,12.85
2023-01-04T04:52:15.425Z,11.25
2023-01-04T04:53:17.726Z,9.13
2023-01-04T04:54:22.317Z,9.15
2023-01-04T04:55:24.140Z,9.50
2023-01-04T04:56:25.928Z,9.55
2023-01-04T04:57:27.650Z,9.75
2023-01-04T04:58:29.380Z,8.75
2023-01-04T04:59:31.226Z,10.20
2023-01-04T05:00:32.889Z,9.52
2023-01-04T05:01:34.933Z,9.90
2023-01-04T05:02:36.882Z,10.13
2023-01-04T05:03:38.971Z,10.55
2023-01-04T05:04:40.693Z,9.50
2023-01-04T05:05:43.013Z,10.55
2023-01-04T05:06:46.123Z,10.65
2023-01-04T05:07:47.822Z,10.50
2023-01-04T05:08:49.581Z,14.75
2023-01-04T05:09:51.245Z,11.70
2023-01-04T05:10:52.946Z,14.07
2023-01-04T05:11:54.657Z,12.70
2023-01-04T05:12:58.118Z,12.40
2023-01-04T05:13:59.988Z,11.75
2023-01-04T05:15:01.639Z,13.95
2023-01-04T05:16:05.094Z,13.52
2023-01-04T05:17:07.110Z,13.95
2023-01-04T05:18:11.343Z,13.40
2023-01-04T05:19:13.047Z,13.70
2023-01-04T05:20:14.734Z,13.43
2023-01-04T05:21:20.081Z,14.15
2023-01-04T05:22:22.220Z,13.93
2023-01-04T05:23:24.375Z,14.05
2023-01-04T05:24:26.181Z,19.67
2023-01-04T05:25:28.257Z,21.02
2023-01-04T05:26:29.958Z,19.23
2023-01-04T05:27:31.682Z,20.58
2023-01-04T05:28:33.337Z,17.25
2023-01-04T05:29:35.085Z,17.88
2023-01-04T05:30:37.193Z,16.43
2023-01-04T05:31:38.961Z,16.30
2023-01-04T05:32:40.751Z,16.05
2023-01-04T05:33:42.434Z,12.15
2023-01-04T05:34:44.135Z,13.02
2023-01-04T05:35:46.092Z,15.18
2023-01-04T05:36:47.778Z,14.02
2023-01-04T05:37:49.528Z,13.65
2023-01-04T05:38:51.357Z,12.10
2023-01-04T05:39:53.188Z,14.48
2023-01-04T05:40:55.370Z,14.60
2023-01-04T05:41:57.135Z,15.27
2023-01-04T05:42:58.984Z,17.73
2023-01-04T05:44:00.757Z,17.77
2023-01-04T05:45:02.506Z,16.75
2023-01-04T05:46:04.384Z,16.98
2023-01-04T05:47:11.116Z,14.57
2023-01-04T05:48:17.573Z,14.32
2023-01-04T05:49:19.287Z,14.93
2023-01-04T05:50:23.367Z,14.55
2023-01-04T05:51:25.091Z,13.70
2023-01-04T05:52:27.757Z,11.50
2023-01-04T05:53:29.386Z,13.90
2023-01-04T05:54:31.037Z,12.73
2023-01-04T05:55:33.286Z,13.23
2023-01-04T05:56:35.041Z,12.98
2023-01-04T05:57:36.860Z,16.13
2023-01-04T05:58:39.778Z,15.57
2023-01-04T05:59:42.301Z,17.45
2023-01-04T06:00:44.201Z,16.00
2023-01-04T06:01:45.981Z,13.93
2023-01-04T06:02:57.200Z,15.20
2023-01-04T06:03:59.066Z,14.57
2023-01-04T06:05:00.797Z,12.50
2023-01-04T06:06:02.573Z,14.40
2023-01-04T06:07:04.308Z,13.13
2023-01-04T06:08:06.404Z,13.93
2023-01-04T06:09:08.273Z,14.10
2023-01-04T06:10:12.414Z,13.02
2023-01-04T06:11:14.144Z,12.90
2023-01-04T06:12:16.022Z,12.97
2023-01-04T06:13:17.653Z,15.63
2023-01-04T06:14:19.303Z,15.30
2023-01-04T06:15:21.043Z,14.70
2023-01-04T06:16:22.762Z,15.98
2023-01-04T06:17:25.016Z,15.88
2023-01-04T06:18:26.704Z,17.25
2023-01-04T06:19:28.404Z,16.02
2023-01-04T06:20:30.098Z,15.70
2023-01-04T06:21:31.794Z,14.07
2023-01-04T06:22:33.546Z,15.83
2023-01-04T06:23:35.304Z,15.85
2023-01-04T06:24:37.064Z,15.57
2023-01-04T06:25:39.049Z,14.20
2023-01-04T06:26:40.825Z,15.55
2023-01-04T06:27:42.659Z,14.85
2023-01-04T06:28:44.626Z,15.65
2023-01-04T06:29:46.391Z,14.85
2023-01-04T06:30:48.094Z,15.80
2023-01-04T06:31:49.826Z,15.43
2023-01-04T06:32:51.500Z,14.30
2023-01-04T06:33:53.274Z,14.77
2023-01-04T06:34:55.086Z,15.77
2023-01-04T06:35:57.397Z,15.02
2023-01-04T06:36:59.206Z,16.30
2023-01-04T06:38:00.855Z,18.50
2023-01-04T06:39:02.759Z,20.17
2023-01-04T06:40:05.432Z,21.13
2023-01-04T06:41:07.176Z,20.58
2023-01-04T06:42:08.863Z,20.60
2023-01-04T06:43:10.533Z,24.77
2023-01-04T06:44:12.242Z,23.40
2023-01-04T06:45:16.240Z,18.15
2023-01-04T06:46:18.071Z,19.55
2023-01-04T06:47:19.858Z,16.27
2023-01-04T06:48:21.762Z,16.77
2023-01-04T06:49:23.544Z,18.02
2023-01-04T06:50:25.226Z,17.80
2023-01-04T06:51:26.928Z,20.48
2023-01-04T06:52:28.621Z,19.42
2023-01-04T06:53:30.313Z,20.37
2023-01-04T06:54:32.069Z,26.83
2023-01-04T06:55:33.793Z,24.42
2023-01-04T06:56:35.557Z,25.80
2023-01-04T06:57:37.689Z,23.05
2023-01-04T06:58:39.635Z,25.05
2023-01-04T06:59:41.392Z,21.73
2023-01-04T07:00:43.100Z,22.13
2023-01-04T07:01:44.973Z,19.65
2023-01-04T07:02:46.786Z,17.35
2023-01-04T07:04:08.592Z,15.60
2023-01-04T07:05:10.435Z,15.15
2023-01-04T07:06:12.133Z,13.60
2023-01-04T07:07:13.889Z,13.63
2023-01-04T07:08:16.028Z,13.13
2023-01-04T07:09:17.793Z,13.20
2023-01-04T07:10:19.682Z,13.63
2023-01-04T07:11:21.387Z,17.05
2023-01-04T07:12:23.135Z,18.50
2023-01-04T07:13:24.834Z,15.18
2023-01-04T07:14:26.552Z,14.70
2023-01-04T07:15:38.740Z,15.30
2023-01-04T07:16:42.122Z,15.32
2023-01-04T07:17:43.905Z,14.00
2023-01-04T07:18:45.574Z,15.27
2023-01-04T07:19:47.318Z,14.43
2023-01-04T07:20:49.054Z,14.70
2023-01-04T07:21:50.828Z,16.23
2023-01-04T07:22:52.749Z,15.75
2023-01-04T07:23:54.421Z,15.48
2023-01-04T07:24:56.160Z,15.30
2023-01-04T07:26:01.737Z,19.20
2023-01-04T07:27:03.626Z,25.05
2023-01-04T07:28:05.582Z,28.00
2023-01-04T07:29:07.308Z,28.90
2023-01-04T07:30:09.751Z,30.63
2023-01-04T07:31:11.681Z,33.92
2023-01-04T07:32:14.219Z,29.13
2023-01-04T07:33:16.073Z,26.63
2023-01-04T07:34:20.763Z,25.60
2023-01-04T07:35:23.238Z,23.93
2023-01-04T07:36:24.970Z,22.05
2023-01-04T07:37:26.755Z,21.42
2023-01-04T07:38:28.410Z,21.23
2023-01-04T07:39:30.215Z,36.63
2023-01-04T07:40:31.979Z,33.35
2023-01-04T07:41:33.630Z,47.63
2023-01-04T07:42:35.352Z,49.13
2023-01-04T07:43:37.011Z,49.28
2023-01-04T07:44:38.856Z,68.03
2023-01-04T07:45:44.079Z,68.17
2023-01-04T07:46:45.900Z,53.38
2023-01-04T07:47:47.695Z,42.65
2023-01-04T07:48:49.453Z,34.53
2023-01-04T07:49:51.387Z,30.65
2023-01-04T07:50:53.168Z,28.45
2023-01-04T07:51:54.973Z,26.83
2023-01-04T07:52:56.694Z,25.33
2023-01-04T07:53:58.986Z,25.08
2023-01-04T07:55:00.636Z,25.95
2023-01-04T07:56:02.366Z,31.47
2023-01-04T07:57:04.169Z,47.38
2023-01-04T07:58:05.977Z,65.65
2023-01-04T07:59:09.326Z,50.10
2023-01-04T08:00:11.772Z,57.78
2023-01-04T08:01:18.766Z,51.67
2023-01-04T08:02:20.719Z,49.35
2023-01-04T08:03:22.644Z,54.08
2023-01-04T08:04:29.652Z,52.55
2023-01-04T08:05:34.998Z,66.53
2023-01-04T08:06:37.876Z,62.77
2023-01-04T08:07:39.623Z,58.30
2023-01-04T08:08:41.820Z,65.25
2023-01-04T08:09:43.497Z,54.47
2023-01-04T08:10:45.203Z,44.90
2023-01-04T08:11:46.941Z,32.25
2023-01-04T08:12:48.745Z,28.13
2023-01-04T08:13:51.476Z,29.50
2023-01-04T08:14:53.193Z,24.48
2023-01-04T08:15:55.893Z,21.08
2023-01-04T08:16:57.675Z,15.23
2023-01-04T08:17:59.591Z,13.63
2023-01-04T08:19:11.895Z,13.35
2023-01-04T08:20:14.437Z,13.05
2023-01-04T08:21:16.153Z,12.65
2023-01-04T08:22:17.862Z,13.52
2023-01-04T08:23:19.523Z,13.45
2023-01-04T08:24:21.193Z,13.65
2023-01-04T08:25:23.172Z,13.32
2023-01-04T08:26:25.346Z,12.48
2023-01-04T08:27:27.063Z,12.43
2023-01-04T08:28:28.764Z,11.77
2023-01-04T08:29:34.780Z,13.15
2023-01-04T08:30:37.142Z,13.50
2023-01-04T08:31:39.394Z,10.55
2023-01-04T08:32:41.161Z,12.68
2023-01-04T08:33:43.672Z,14.98
2023-01-04T08:34:45.352Z,12.55
2023-01-04T08:35:47.014Z,11.63
2023-01-04T08:36:50.978Z,12.07
2023-01-04T08:37:52.763Z,11.93
2023-01-04T08:39:01.367Z,11.15
2023-01-04T08:40:04.010Z,11.35
2023-01-04T08:41:23.500Z,10.70
2023-01-04T08:42:31.521Z,11.00
2023-01-04T08:43:33.780Z,10.35
2023-01-04T08:44:35.531Z,10.23
2023-01-04T08:45:37.427Z,10.77
2023-01-04T08:46:39.307Z,11.80
2023-01-04T08:47:41.126Z,10.38
2023-01-04T08:48:43.019Z,11.27
2023-01-04T08:49:44.739Z,11.27
2023-01-04T08:50:46.579Z,11.45
2023-01-04T08:51:49.334Z,10.88
2023-01-04T08:52:51.036Z,11.18
2023-01-04T08:53:52.755Z,10.32
2023-01-04T08:54:54.583Z,10.27
2023-01-04T08:55:56.785Z,10.50
2023-01-04T08:56:58.563Z,10.02
2023-01-04T08:58:01.016Z,10.63
2023-01-04T08:59:02.755Z,11.37
2023-01-04T09:00:05.317Z,11.70
2023-01-04T09:01:09.162Z,10.50
2023-01-04T09:02:26.068Z,11.20
2023-01-04T09:03:28.424Z,10.00
2023-01-04T09:04:30.184Z,10.93
2023-01-04T09:05:32.693Z,11.27
2023-01-04T09:06:35.501Z,9.85
2023-01-04T09:07:37.291Z,10.55
2023-01-04T09:08:40.536Z,10.82
2023-01-04T09:09:42.834Z,10.73
2023-01-04T09:10:44.463Z,10.80
2023-01-04T09:11:46.162Z,11.80
2023-01-04T09:12:47.816Z,10.68
2023-01-04T09:13:54.574Z,11.00
2023-01-04T09:14:56.339Z,10.65
2023-01-04T09:16:01.318Z,9.13
2023-01-04T09:17:03.187Z,7.80
2023-01-04T09:18:31.159Z,10.40
2023-01-04T09:19:27.302Z,10.43
2023-01-04T09:20:29.350Z,10.13
2023-01-04T09:21:31.088Z,11.10
2023-01-04T09:22:32.853Z,11.05
2023-01-04T09:23:35.372Z,11.15
2023-01-04T09:24:37.069Z,10.38
2023-01-04T09:25:39.357Z,11.50
2023-01-04T09:26:41.169Z,10.20
2023-01-04T09:27:44.343Z,11.05
2023-01-04T09:28:45.979Z,10.60
2023-01-04T09:29:47.687Z,11.27
2023-01-04T09:30:49.437Z,10.67
2023-01-04T09:31:51.172Z,11.35
2023-01-04T09:32:53.028Z,10.48
2023-01-04T09:35:17.903Z,10.50
2023-01-04T09:36:19.920Z,10.00
2023-01-04T09:37:21.994Z,10.50
2023-01-04T09:38:23.662Z,10.73
2023-01-04T09:39:25.301Z,10.50
2023-01-04T09:41:01.559Z,10.50
2023-01-04T09:42:10.639Z,9.80
2023-01-04T09:43:22.328Z,9.80
2023-01-04T09:45:21.554Z,9.60
2023-01-04T09:46:08.289Z,10.90
2023-01-04T09:47:12.995Z,10.38
2023-01-04T09:48:25.273Z,10.48
2023-01-04T09:49:56.785Z,9.82
2023-01-04T09:51:02.863Z,8.07
2023-01-04T09:52:10.515Z,9.95
2023-01-04T09:53:36.336Z,9.98
2023-01-04T09:55:02.981Z,9.10
2023-01-04T09:56:28.453Z,11.00
2023-01-04T09:57:36.960Z,11.48
2023-01-04T09:58:41.304Z,12.27
2023-01-04T09:59:43.261Z,11.50
2023-01-04T10:00:48.884Z,12.63
2023-01-04T10:02:15.636Z,14.40
2023-01-04T10:03:36.084Z,11.82
2023-01-04T10:04:49.008Z,11.43
2023-01-04T10:05:54.015Z,14.73
2023-01-04T10:07:00.928Z,14.80
2023-01-04T10:08:15.875Z,13.32
2023-01-04T10:09:17.797Z,13.73
2023-01-04T10:10:34.931Z,10.15
2023-01-04T10:11:45.488Z,9.63
2023-01-04T10:12:50.697Z,12.35
2023-01-04T10:14:17.471Z,10.55
2023-01-04T10:15:34.452Z,9.73
2023-01-04T10:17:44.591Z,10.27
2023-01-04T10:19:59.765Z,7.35
2023-01-04T10:21:59.818Z,8.25
2023-01-04T10:23:39.068Z,8.73
2023-01-04T10:24:43.464Z,8.82
2023-01-04T10:26:03.920Z,8.95
2023-01-04T10:27:32.395Z,9.50
2023-01-04T10:28:42.274Z,7.90
2023-01-04T10:30:11.005Z,8.57
2023-01-04T10:31:40.433Z,9.13
2023-01-04T10:32:46.097Z,9.02
2023-01-04T10:33:50.162Z,8.40
2023-01-04T10:34:53.788Z,8.75
2023-01-04T10:35:56.663Z,9.55
2023-01-04T10:37:04.333Z,9.05
2023-01-04T10:38:18.097Z,9.70
2023-01-04T10:39:30.312Z,9.27
2023-01-04T10:40:38.923Z,8.77
2023-01-04T10:41:52.732Z,9.07
2023-01-04T10:43:26.339Z,8.80
2023-01-04T10:44:54.905Z,9.20
2023-01-04T10:46:05.562Z,8.00
2023-01-04T10:47:19.280Z,8.30
2023-01-04T10:48:24.683Z,8.60
2023-01-04T10:49:33.647Z,8.93
2023-01-04T10:50:56.889Z,8.15
2023-01-04T10:52:15.267Z,8.52
2023-01-04T10:53:40.460Z,6.53
2023-01-04T10:54:55.137Z,6.70
2023-01-04T10:56:25.893Z,8.15
2023-01-04T10:57:38.992Z,7.38
2023-01-04T10:58:43.820Z,6.80
2023-01-04T10:59:59.195Z,8.43
2023-01-04T11:01:08.374Z,8.23
2023-01-04T11:02:19.323Z,7.82
2023-01-04T11:03:52.079Z,7.63
2023-01-04T11:05:04.933Z,8.40
2023-01-04T11:06:19.011Z,7.75
2023-01-04T11:07:40.173Z,10.13
2023-01-04T11:08:56.723Z,8.57
2023-01-04T11:10:34.478Z,8.43
2023-01-04T11:11:45.257Z,8.77
2023-01-04T11:12:46.966Z,8.70
2023-01-04T11:13:49.739Z,8.40
2023-01-04T11:14:52.295Z,8.82
2023-01-04T11:15:56.783Z,7.55
2023-01-04T11:17:03.189Z,9.52
2023-01-04T11:18:09.653Z,8.80
2023-01-04T11:19:13.333Z,7.70
2023-01-04T11:20:17.142Z,8.10
2023-01-04T11:21:23.343Z,8.90
2023-01-04T11:22:32.218Z,7.77
2023-01-04T11:23:34.034Z,7.30
2023-01-04T11:24:37.532Z,8.85
2023-01-04T11:25:56.284Z,9.57
2023-01-04T11:27:04.479Z,8.73
2023-01-04T11:28:49.999Z,9.00
2023-01-04T11:30:04.006Z,8.77
2023-01-04T11:31:08.602Z,7.60
2023-01-04T11:32:34.494Z,7.88
2023-01-04T11:33:54.687Z,9.27
2023-01-04T11:34:56.318Z,7.17
2023-01-04T11:35:58.316Z,8.60
2023-01-04T11:37:00.041Z,10.00
2023-01-04T11:38:14.527Z,9.15
2023-01-04T11:39:22.824Z,9.27
2023-01-04T11:40:25.055Z,8.75
2023-01-04T11:41:27.452Z,9.13
2023-01-04T11:42:29.161Z,8.15
2023-01-04T11:43:36.028Z,7.68
2023-01-04T11:44:37.799Z,8.63
2023-01-04T11:45:39.891Z,8.83
2023-01-04T11:46:42.105Z,9.35
2023-01-04T11:47:56.930Z,9.52
2023-01-04T11:48:59.130Z,9.20
2023-01-04T11:50:00.897Z,6.82
2023-01-04T11:51:03.506Z,8.77
2023-01-04T11:52:07.302Z,7.68
2023-01-04T11:53:30.157Z,8.25
2023-01-04T11:54:31.833Z,7.55
2023-01-04T11:55:33.847Z,8.40
2023-01-04T11:56:37.172Z,8.33
2023-01-04T11:57:38.896Z,7.28
2023-01-04T11:58:42.110Z,8.70
2023-01-04T11:59:43.808Z,8.32
2023-01-04T12:00:57.087Z,7.00
2023-01-04T12:03:53.161Z,8.48
2023-01-04T12:04:54.816Z,6.38
2023-01-04T12:05:58.153Z,8.65
2023-01-04T12:07:11.116Z,8.07
2023-01-04T12:08:34.478Z,8.90
2023-01-04T12:09:36.317Z,8.52
2023-01-04T12:10:38.437Z,7.82
2023-01-04T12:11:43.395Z,7.13
2023-01-04T12:12:45.093Z,8.38
2023-01-04T12:13:47.023Z,8.07
2023-01-04T12:14:49.822Z,8.38
2023-01-04T12:16:11.154Z,8.82
2023-01-04T12:17:45.226Z,8.05
2023-01-04T12:18:47.037Z,6.95
2023-01-04T12:19:50.432Z,8.10
2023-01-04T12:20:52.576Z,7.88
2023-01-04T12:22:02.733Z,7.53
2023-01-04T12:23:05.276Z,7.55
2023-01-04T12:24:07.809Z,7.25
2023-01-04T12:25:24.384Z,6.63
2023-01-04T12:26:27.020Z,7.55
2023-01-04T12:27:29.128Z,6.25
2023-01-04T12:28:35.141Z,7.03
2023-01-04T12:29:53.176Z,7.30
2023-01-04T12:30:54.877Z,7.43
2023-01-04T12:32:05.610Z,6.45
2023-01-04T12:33:32.275Z,7.18
2023-01-04T12:34:33.983Z,8.38
2023-01-04T12:36:05.233Z,7.32
2023-01-04T12:37:07.360Z,6.95
2023-01-04T12:38:10.212Z,9.13
2023-01-04T12:39:17.387Z,6.78
2023-01-04T12:40:44.181Z,6.72
2023-01-04T12:41:45.817Z,6.40
2023-01-04T12:43:16.342Z,8.13
2023-01-04T12:44:36.901Z,6.80
2023-01-04T12:45:38.883Z,6.53
2023-01-04T12:46:42.188Z,6.13
2023-01-04T12:47:44.923Z,6.25
2023-01-04T12:48:46.611Z,6.97
2023-01-04T12:50:00.904Z,6.53
2023-01-04T12:51:32.855Z,6.53
2023-01-04T12:54:05.427Z,6.50
2023-01-04T12:55:27.360Z,6.83
2023-01-04T12:57:06.317Z,7.22
2023-01-04T12:58:58.283Z,7.07
2023-01-04T13:00:06.890Z,7.45
2023-01-04T13:01:19.770Z,6.95
2023-01-04T13:02:28.741Z,6.03
2023-01-04T13:03:30.526Z,6.95
2023-01-04T13:04:41.377Z,7.53
2023-01-04T13:06:03.047Z,6.78
2023-01-04T13:07:14.830Z,6.53
2023-01-04T13:08:16.606Z,6.53
2023-01-04T13:09:24.133Z,6.93
2023-01-04T13:10:38.744Z,7.13
2023-01-04T13:12:12.832Z,8.48
2023-01-04T13:13:33.035Z,6.97
2023-01-04T13:14:47.325Z,7.30
2023-01-04T13:16:01.728Z,6.82
2023-01-04T13:17:03.525Z,7.13
2023-01-04T13:18:26.299Z,7.40
2023-01-04T13:19:28.344Z,6.95
2023-01-04T13:20:30.208Z,6.33
2023-01-04T13:21:31.805Z,8.20
2023-01-04T13:22:33.964Z,6.68
2023-01-04T13:23:36.039Z,7.45
2023-01-04T13:24:37.852Z,7.40
2023-01-04T13:25:39.596Z,8.13
2023-01-04T13:26:43.685Z,8.73
2023-01-04T13:27:56.876Z,7.05
2023-01-04T13:29:29.097Z,8.23
2023-01-04T13:30:33.548Z,7.13
2023-01-04T13:31:55.802Z,8.10
2023-01-04T13:33:24.798Z,7.53
2023-01-04T13:34:26.622Z,6.57
2023-01-04T13:35:28.425Z,6.70
2023-01-04T13:36:30.309Z,6.88
2023-01-04T13:37:36.012Z,7.43
2023-01-04T13:38:40.401Z,6.18
2023-01-04T13:39:47.920Z,6.97
2023-01-04T13:40:49.842Z,6.70
2023-01-04T13:41:51.740Z,6.88
2023-01-04T13:43:30.193Z,7.53
2023-01-04T13:45:17.676Z,6.60
2023-01-04T13:46:19.714Z,6.50
2023-01-04T13:47:21.746Z,7.25
2023-01-04T13:48:24.986Z,7.57
2023-01-04T13:49:27.078Z,7.68
2023-01-04T13:50:36.264Z,7.03
2023-01-04T13:51:38.638Z,7.40
2023-01-04T13:52:58.281Z,6.85
2023-01-04T13:54:06.835Z,6.85
2023-01-04T13:55:13.718Z,8.13
2023-01-04T13:56:22.452Z,6.93
2023-01-04T13:57:24.114Z,7.95
2023-01-04T13:58:28.109Z,7.60
2023-01-04T13:59:29.830Z,7.93
2023-01-04T14:00:44.785Z,8.10
2023-01-04T14:01:48.245Z,7.72
2023-01-04T14:03:10.411Z,7.55
2023-01-04T14:04:26.498Z,8.15
2023-01-04T14:05:28.278Z,7.78
2023-01-04T14:06:32.864Z,7.83
2023-01-04T14:07:34.575Z,9.02
2023-01-04T14:08:42.064Z,9.27
2023-01-04T14:09:48.281Z,9.30
2023-01-04T14:10:50.286Z,8.98
2023-01-04T14:12:00.382Z,10.25
2023-01-04T14:13:05.814Z,8.55
2023-01-04T14:14:37.958Z,7.82
2023-01-04T14:15:39.754Z,8.43
2023-01-04T14:16:41.807Z,10.38
2023-01-04T14:17:57.194Z,8.77
2023-01-04T14:18:58.907Z,8.65
2023-01-04T14:20:20.982Z,8.80
2023-01-04T14:21:40.022Z,8.07
2023-01-04T14:22:43.004Z,7.78
2023-01-04T14:23:44.680Z,7.75
2023-01-04T14:26:32.095Z,8.60
2023-01-04T14:27:39.600Z,8.15
2023-01-04T14:28:49.152Z,7.47
2023-01-04T14:29:51.828Z,9.23
2023-01-04T14:30:56.448Z,8.43
2023-01-04T14:31:58.463Z,8.55
2023-01-04T14:33:08.029Z,7.93
2023-01-04T14:34:13.955Z,9.43
2023-01-04T14:35:16.158Z,9.52
2023-01-04T14:36:30.080Z,9.07